Terminal Aerodrome Forecast
Issued by NWS Pendleton, OR

Home | Current Version | Previous Version | Text Only | Print | Product List | Glossary On
Versions: 1 2 3 4 5 6 7 8 9 10 11 12
000
FTUS46 KPDT 190500
TAFPDT
TAF
KPDT 190520Z 1906/2006 12005KT P6SM SKC
     FM191700 VRB03KT P6SM SKC
     FM192100 36007KT P6SM SKC
     FM200400 13005KT P6SM FEW250=

USA.gov is the U.S. government's official web portal to all federal, state and local government web resources and services.